createdAt,value
2017-09-24T00:00:07.368Z,73.93
2017-09-24T00:02:34.825Z,73.79
2017-09-24T00:05:02.325Z,73.77
2017-09-24T00:07:29.833Z,73.62
2017-09-24T00:09:57.293Z,73.41
2017-09-24T00:12:24.769Z,72.98
2017-09-24T00:14:52.236Z,73.24
2017-09-24T00:17:19.739Z,73.14
2017-09-24T00:19:47.194Z,73.27
2017-09-24T00:22:14.722Z,73.31
2017-09-24T00:24:42.237Z,73.40
2017-09-24T00:27:09.733Z,73.57
2017-09-24T00:29:37.210Z,73.86
2017-09-24T00:32:04.673Z,73.97
2017-09-24T00:34:32.206Z,73.82
2017-09-24T00:36:59.677Z,73.87
2017-09-24T00:39:27.174Z,74.02
2017-09-24T00:41:54.620Z,73.88
2017-09-24T00:44:22.102Z,73.64
2017-09-24T00:46:49.557Z,73.21
2017-09-24T00:49:17.167Z,73.33
2017-09-24T00:51:44.637Z,73.34
2017-09-24T00:54:12.113Z,73.25
2017-09-24T00:56:39.617Z,73.03
2017-09-24T00:59:07.101Z,73.10
2017-09-24T01:01:34.745Z,73.57
2017-09-24T01:04:02.218Z,73.91
2017-09-24T01:06:29.677Z,73.91
2017-09-24T01:08:57.164Z,73.69
2017-09-24T01:11:24.626Z,73.45
2017-09-24T01:13:52.162Z,73.28
2017-09-24T01:16:19.645Z,73.29
2017-09-24T01:18:47.135Z,73.49
2017-09-24T01:21:14.588Z,73.46
2017-09-24T01:23:42.422Z,73.48
2017-09-24T01:26:09.877Z,73.63
2017-09-24T01:28:37.378Z,73.44
2017-09-24T01:31:04.862Z,73.81
2017-09-24T01:33:32.697Z,73.76
2017-09-24T01:36:00.150Z,73.64
2017-09-24T01:38:27.612Z,73.52
2017-09-24T01:40:55.453Z,73.31
2017-09-24T01:43:22.938Z,73.25
2017-09-24T01:45:50.397Z,73.37
2017-09-24T01:48:17.897Z,73.37
2017-09-24T01:50:45.350Z,72.92
2017-09-24T01:53:12.857Z,73.09
2017-09-24T01:55:40.392Z,73.31
2017-09-24T01:58:07.862Z,73.70
2017-09-24T02:00:35.373Z,73.73
2017-09-24T02:03:02.837Z,73.62
2017-09-24T02:05:30.323Z,73.62
2017-09-24T02:07:57.778Z,73.50
2017-09-24T02:10:25.262Z,73.76
2017-09-24T02:12:52.720Z,73.98
2017-09-24T02:15:20.334Z,74.12
2017-09-24T02:17:47.833Z,73.94
2017-09-24T02:20:15.353Z,74.40
2017-09-24T02:22:43.721Z,74.62
2017-09-24T02:25:11.318Z,74.32
2017-09-24T02:27:38.793Z,74.19
2017-09-24T02:30:06.301Z,74.00
2017-09-24T02:32:33.797Z,73.90
2017-09-24T02:35:01.270Z,74.20
2017-09-24T02:37:28.781Z,74.00
2017-09-24T02:39:57.011Z,73.75
2017-09-24T02:42:24.514Z,73.42
2017-09-24T02:44:52.012Z,73.46
2017-09-24T02:47:19.480Z,73.77
2017-09-24T02:49:46.966Z,73.42
2017-09-24T02:52:14.433Z,73.44
2017-09-24T02:54:41.938Z,73.40
2017-09-24T02:57:09.414Z,73.21
2017-09-24T02:59:36.932Z,72.90
2017-09-24T03:02:04.412Z,73.00
2017-09-24T03:04:31.902Z,73.11
2017-09-24T03:06:59.354Z,74.20
2017-09-24T03:09:26.869Z,74.97
2017-09-24T03:11:54.375Z,75.32
2017-09-24T03:14:21.828Z,74.52
2017-09-24T03:16:49.319Z,75.05
2017-09-24T03:19:16.786Z,75.11
2017-09-24T03:21:44.303Z,75.26
2017-09-24T03:24:11.807Z,75.75
2017-09-24T03:26:39.260Z,76.14
2017-09-24T03:29:06.753Z,76.21
2017-09-24T03:31:34.221Z,76.50
2017-09-24T03:34:01.731Z,77.46
2017-09-24T03:36:29.199Z,77.52
2017-09-24T03:38:56.692Z,78.14
2017-09-24T03:41:24.171Z,78.68
2017-09-24T03:43:51.660Z,78.41
2017-09-24T03:46:19.148Z,78.12
2017-09-24T03:48:46.610Z,78.02
2017-09-24T03:51:14.085Z,77.42
2017-09-24T03:53:41.567Z,76.78
2017-09-24T03:56:09.077Z,76.65
2017-09-24T03:58:36.540Z,76.40
2017-09-24T04:01:04.062Z,75.99
2017-09-24T04:03:31.539Z,76.48
2017-09-24T04:05:59.021Z,77.02
2017-09-24T04:08:26.517Z,77.47
2017-09-24T04:10:54.010Z,78.23
2017-09-24T04:13:21.570Z,78.36
2017-09-24T04:15:49.032Z,78.28
2017-09-24T04:18:16.532Z,78.22
2017-09-24T04:20:44.005Z,78.63
2017-09-24T04:23:11.510Z,78.88
2017-09-24T04:25:39.025Z,79.07
2017-09-24T04:28:06.557Z,79.37
2017-09-24T04:30:34.022Z,79.29
2017-09-24T04:33:01.518Z,79.33
2017-09-24T04:35:28.988Z,79.56
2017-09-24T04:37:56.670Z,79.65
2017-09-24T04:40:24.141Z,79.21
2017-09-24T04:42:51.962Z,79.29
2017-09-24T04:45:19.423Z,79.10
2017-09-24T04:47:46.887Z,79.46
2017-09-24T04:50:14.383Z,79.75
2017-09-24T04:52:41.866Z,79.64
2017-09-24T04:55:09.356Z,79.80
2017-09-24T04:57:36.826Z,79.59
2017-09-24T05:00:04.477Z,80.06
2017-09-24T05:02:31.954Z,79.88
2017-09-24T05:04:59.433Z,80.29
2017-09-24T05:07:27.077Z,80.89
2017-09-24T05:09:54.533Z,80.89
2017-09-24T05:12:21.989Z,80.71
2017-09-24T05:14:49.488Z,80.54
2017-09-24T05:17:16.969Z,80.56
2017-09-24T05:19:44.450Z,80.45
2017-09-24T05:22:11.966Z,80.49
2017-09-24T05:24:39.438Z,80.90
2017-09-24T05:27:07.032Z,81.14
2017-09-24T05:29:34.526Z,81.36
2017-09-24T05:32:02.009Z,81.07
2017-09-24T05:34:29.491Z,81.10
2017-09-24T05:36:56.948Z,81.03
2017-09-24T05:39:24.487Z,81.01
2017-09-24T05:41:51.959Z,80.77
2017-09-24T05:44:19.421Z,81.13
2017-09-24T05:46:46.946Z,81.53
2017-09-24T05:49:14.417Z,81.64
2017-09-24T05:51:41.926Z,81.16
2017-09-24T05:54:09.392Z,81.44
2017-09-24T05:56:36.891Z,81.45
2017-09-24T05:59:04.428Z,81.42
2017-09-24T06:01:31.905Z,81.42
2017-09-24T06:03:59.401Z,81.06
2017-09-24T06:06:26.900Z,80.94
2017-09-24T06:08:54.414Z,81.07
2017-09-24T06:11:21.877Z,81.22
2017-09-24T06:13:49.381Z,80.86
2017-09-24T06:16:16.866Z,80.51
2017-09-24T06:18:44.347Z,80.60
2017-09-24T06:21:11.809Z,80.28
2017-09-24T06:23:39.366Z,80.27
2017-09-24T06:26:06.874Z,80.62
2017-09-24T06:28:34.354Z,80.82
2017-09-24T06:31:01.850Z,80.65
2017-09-24T06:33:29.333Z,80.56
2017-09-24T06:35:56.825Z,80.33
2017-09-24T06:38:24.312Z,80.82
2017-09-24T06:40:51.831Z,80.85
2017-09-24T06:43:19.296Z,80.51
2017-09-24T06:45:47.026Z,80.92
2017-09-24T06:48:14.517Z,80.85
2017-09-24T06:50:41.997Z,81.21
2017-09-24T06:53:09.522Z,81.01
2017-09-24T06:55:37.014Z,80.97
2017-09-24T06:58:04.536Z,81.33
2017-09-24T07:00:32.028Z,81.53
2017-09-24T07:02:59.655Z,81.84
2017-09-24T07:05:27.128Z,81.78
2017-09-24T07:07:54.598Z,81.86
2017-09-24T07:10:22.130Z,82.16
2017-09-24T07:12:49.580Z,81.84
2017-09-24T07:15:17.097Z,81.80
2017-09-24T07:17:44.634Z,81.35
2017-09-24T07:20:12.186Z,81.04
2017-09-24T07:22:39.658Z,80.34
2017-09-24T07:25:07.198Z,80.29
2017-09-24T07:27:34.721Z,80.18
2017-09-24T07:30:02.220Z,79.93
2017-09-24T07:32:29.766Z,80.06
2017-09-24T07:34:57.229Z,80.37
2017-09-24T07:37:24.749Z,79.81
2017-09-24T07:39:52.235Z,79.99
2017-09-24T07:42:19.762Z,79.85
2017-09-24T07:44:47.571Z,79.79
2017-09-24T07:47:15.068Z,79.12
2017-09-24T07:49:42.540Z,78.83
2017-09-24T07:52:10.021Z,79.05
2017-09-24T07:54:37.535Z,78.98
2017-09-24T07:57:05.013Z,79.06
2017-09-24T07:59:32.529Z,79.38
2017-09-24T08:02:00.035Z,79.31
2017-09-24T08:04:27.537Z,80.31
2017-09-24T08:06:55.091Z,80.50
2017-09-24T08:09:22.577Z,80.01
2017-09-24T08:11:50.140Z,79.17
2017-09-24T08:14:17.657Z,78.85
2017-09-24T08:16:45.162Z,78.51
2017-09-24T08:19:12.620Z,78.66
2017-09-24T08:21:40.138Z,78.57
2017-09-24T08:24:07.611Z,78.20
2017-09-24T08:26:35.130Z,77.96
2017-09-24T08:29:02.679Z,77.68
2017-09-24T08:31:30.218Z,77.72
2017-09-24T08:33:57.718Z,77.07
2017-09-24T08:36:25.198Z,77.29
2017-09-24T08:38:52.796Z,78.04
2017-09-24T08:41:20.286Z,78.65
2017-09-24T08:43:47.805Z,79.39
2017-09-24T08:46:15.322Z,79.96
2017-09-24T08:48:42.810Z,80.47
2017-09-24T08:51:10.307Z,80.52
2017-09-24T08:53:37.760Z,80.33
2017-09-24T08:56:05.246Z,79.47
2017-09-24T08:58:32.742Z,78.77
2017-09-24T09:01:00.229Z,78.25
2017-09-24T09:03:27.733Z,77.96
2017-09-24T09:05:55.189Z,77.50
2017-09-24T09:08:22.688Z,77.07
2017-09-24T09:10:50.160Z,76.90
2017-09-24T09:13:17.661Z,77.15
2017-09-24T09:15:45.125Z,77.26
2017-09-24T09:18:12.583Z,77.20
2017-09-24T09:20:40.084Z,76.87
2017-09-24T09:23:07.550Z,76.50
2017-09-24T09:25:35.063Z,76.08
2017-09-24T09:28:02.522Z,75.70
2017-09-24T09:30:30.004Z,75.49
2017-09-24T09:33:09.165Z,75.11
2017-09-24T09:35:36.693Z,75.19
2017-09-24T09:38:04.174Z,74.53
2017-09-24T09:40:32.008Z,74.28
2017-09-24T09:42:59.533Z,74.21
2017-09-24T09:45:38.802Z,74.66
2017-09-24T09:48:06.284Z,74.24
2017-09-24T09:50:33.757Z,74.29
2017-09-24T09:53:01.373Z,73.89
2017-09-24T09:55:28.873Z,73.53
2017-09-24T09:57:56.861Z,73.09
2017-09-24T10:00:24.353Z,72.69
2017-09-24T10:02:52.056Z,72.71
2017-09-24T10:05:19.541Z,72.34
2017-09-24T10:07:58.717Z,71.79
2017-09-24T10:10:26.185Z,71.38
2017-09-24T10:12:53.676Z,71.09
2017-09-24T10:15:21.179Z,70.47
2017-09-24T10:17:48.690Z,70.23
2017-09-24T10:20:16.203Z,70.16
2017-09-24T10:22:43.659Z,69.61
2017-09-24T10:25:11.159Z,69.25
2017-09-24T10:27:38.664Z,68.89
2017-09-24T10:30:17.837Z,68.55
2017-09-24T10:32:45.299Z,68.16
2017-09-24T10:35:12.769Z,68.02
2017-09-24T10:37:40.267Z,67.18
2017-09-24T10:40:07.752Z,66.96
2017-09-24T10:42:35.464Z,66.51
2017-09-24T10:45:02.966Z,65.84
2017-09-24T10:47:30.454Z,65.18
2017-09-24T10:49:57.950Z,65.18
2017-09-24T10:52:25.470Z,64.82
2017-09-24T10:54:52.950Z,63.98
2017-09-24T10:57:20.434Z,63.20
2017-09-24T10:59:47.987Z,62.35
2017-09-24T11:02:15.499Z,61.96
2017-09-24T11:04:43.013Z,61.29
2017-09-24T11:07:10.498Z,60.62
2017-09-24T11:09:37.989Z,68.50
2017-09-24T11:12:05.461Z,66.67
2017-09-24T11:14:32.951Z,68.42
2017-09-24T11:17:00.504Z,60.03
2017-09-24T11:19:28.099Z,59.94
2017-09-24T11:21:55.603Z,63.17
2017-09-24T11:24:23.095Z,62.94
2017-09-24T11:26:50.591Z,62.23
2017-09-24T11:29:18.878Z,61.88
2017-09-24T11:31:46.366Z,59.82
2017-09-24T11:34:13.848Z,60.54
2017-09-24T11:36:41.337Z,60.32
2017-09-24T11:39:08.830Z,59.70
2017-09-24T11:41:36.305Z,61.58
2017-09-24T11:44:08.226Z,59.37
2017-09-24T11:46:35.722Z,60.91
2017-09-24T11:49:03.225Z,61.11
2017-09-24T11:51:30.685Z,61.00
2017-09-24T11:53:58.177Z,60.44
2017-09-24T11:56:26.429Z,60.45
2017-09-24T11:58:53.925Z,58.64
2017-09-24T12:01:21.397Z,60.01
2017-09-24T12:03:48.891Z,59.26
2017-09-24T12:06:16.426Z,59.61
2017-09-24T12:08:43.898Z,58.29
2017-09-24T12:11:11.444Z,58.80
2017-09-24T12:13:38.919Z,59.14
2017-09-24T12:16:06.438Z,59.07
2017-09-24T12:18:33.933Z,59.19
2017-09-24T12:21:01.421Z,59.25
2017-09-24T12:23:28.884Z,59.01
2017-09-24T12:25:56.376Z,59.21
2017-09-24T12:28:23.869Z,58.94
2017-09-24T12:30:51.358Z,59.00
2017-09-24T12:33:18.840Z,58.90
2017-09-24T12:35:46.347Z,58.65
2017-09-24T12:38:13.821Z,58.71
2017-09-24T12:40:41.316Z,58.98
2017-09-24T12:43:09.022Z,59.02
2017-09-24T12:45:36.529Z,58.76
2017-09-24T12:48:04.042Z,58.22
2017-09-24T12:50:31.526Z,57.89
2017-09-24T12:52:59.020Z,57.53
2017-09-24T12:55:26.511Z,57.02
2017-09-24T12:57:53.998Z,56.93
2017-09-24T13:00:21.481Z,57.06
2017-09-24T13:02:48.987Z,55.53
2017-09-24T13:05:16.477Z,56.50
2017-09-24T13:07:43.986Z,55.96
2017-09-24T13:10:11.476Z,55.12
2017-09-24T13:12:38.977Z,54.68
2017-09-24T13:15:06.522Z,53.71
2017-09-24T13:17:34.439Z,54.11
2017-09-24T13:20:01.922Z,53.58
2017-09-24T13:22:29.418Z,52.17
2017-09-24T13:24:56.954Z,53.07
2017-09-24T13:27:24.427Z,53.68
2017-09-24T13:29:52.873Z,54.01
2017-09-24T13:32:20.336Z,55.40
2017-09-24T13:34:48.548Z,54.83
2017-09-24T13:37:16.010Z,54.95
2017-09-24T13:39:43.485Z,56.42
2017-09-24T13:42:10.988Z,56.54
2017-09-24T13:44:38.462Z,57.09
2017-09-24T13:47:05.974Z,56.94
2017-09-24T13:49:33.748Z,56.12
2017-09-24T13:52:01.269Z,57.97
2017-09-24T13:54:28.765Z,55.68
2017-09-24T13:56:56.236Z,57.49
2017-09-24T13:59:23.737Z,57.04
2017-09-24T14:01:51.216Z,57.13
2017-09-24T14:04:18.713Z,57.15
2017-09-24T14:06:46.172Z,56.56
2017-09-24T14:09:13.661Z,56.44
2017-09-24T14:11:41.147Z,56.25
2017-09-24T14:14:08.649Z,56.34
2017-09-24T14:16:36.145Z,55.76
2017-09-24T14:19:03.822Z,55.64
2017-09-24T14:21:31.289Z,55.51
2017-09-24T14:23:58.787Z,55.75
2017-09-24T14:26:26.261Z,55.06
2017-09-24T14:28:53.824Z,55.67
2017-09-24T14:31:21.354Z,55.62
2017-09-24T14:33:48.829Z,54.06
2017-09-24T14:36:16.318Z,55.37
2017-09-24T14:38:43.788Z,55.10
2017-09-24T14:41:11.384Z,55.06
2017-09-24T14:43:38.847Z,54.91
2017-09-24T14:46:06.363Z,54.42
2017-09-24T14:48:33.827Z,54.10
2017-09-24T14:51:01.336Z,55.64
2017-09-24T14:53:28.841Z,54.43
2017-09-24T14:55:56.335Z,54.43
2017-09-24T14:58:23.806Z,54.81
2017-09-24T15:00:51.339Z,52.96
2017-09-24T15:03:18.832Z,53.26
2017-09-24T15:05:46.322Z,52.93
2017-09-24T15:08:13.822Z,51.79
2017-09-24T15:10:41.314Z,52.99
2017-09-24T15:13:08.821Z,53.06
2017-09-24T15:15:36.294Z,52.83
2017-09-24T15:18:03.786Z,52.68
2017-09-24T15:20:31.305Z,51.38
2017-09-24T15:22:58.792Z,52.08
2017-09-24T15:25:27.108Z,52.26
2017-09-24T15:27:54.601Z,52.17
2017-09-24T15:30:22.107Z,52.93
2017-09-24T15:32:49.680Z,53.50
2017-09-24T15:35:17.138Z,53.02
2017-09-24T15:37:44.625Z,52.85
2017-09-24T15:40:12.233Z,53.82
2017-09-24T15:42:39.714Z,55.41
2017-09-24T15:45:07.228Z,55.84
2017-09-24T15:47:34.819Z,56.38
2017-09-24T15:50:02.328Z,56.97
2017-09-24T15:52:29.808Z,57.17
2017-09-24T15:54:57.285Z,57.52
2017-09-24T15:57:24.800Z,57.80
2017-09-24T15:59:52.267Z,57.93
2017-09-24T16:02:19.782Z,58.46
2017-09-24T16:04:47.293Z,59.04
2017-09-24T16:07:14.773Z,59.72
2017-09-24T16:09:42.309Z,60.06
2017-09-24T16:12:09.893Z,60.16
2017-09-24T16:14:37.383Z,60.31
2017-09-24T16:17:04.849Z,60.40
2017-09-24T16:19:32.350Z,60.54
2017-09-24T16:21:59.852Z,60.61
2017-09-24T16:24:27.325Z,60.95
2017-09-24T16:26:55.241Z,61.20
2017-09-24T16:29:22.722Z,61.22
2017-09-24T16:31:50.205Z,61.28
2017-09-24T16:34:17.693Z,61.42
2017-09-24T16:36:45.164Z,61.49
2017-09-24T16:39:12.681Z,61.45
2017-09-24T16:41:40.146Z,61.41
2017-09-24T16:44:07.634Z,61.38
2017-09-24T16:46:35.127Z,61.83
2017-09-24T16:49:02.621Z,62.56
2017-09-24T16:51:30.105Z,62.66
2017-09-24T16:53:57.599Z,62.61
2017-09-24T16:56:25.088Z,62.59
2017-09-24T16:58:52.575Z,62.54
2017-09-24T17:01:20.072Z,62.63
2017-09-24T17:03:47.543Z,62.70
2017-09-24T17:06:15.067Z,62.88
2017-09-24T17:08:42.555Z,63.35
2017-09-24T17:11:10.074Z,63.42
2017-09-24T17:13:37.550Z,63.57
2017-09-24T17:16:05.064Z,64.13
2017-09-24T17:18:32.561Z,64.35
2017-09-24T17:21:00.095Z,64.55
2017-09-24T17:23:27.581Z,64.77
2017-09-24T17:25:55.257Z,64.95
2017-09-24T17:28:22.743Z,65.15
2017-09-24T17:30:50.217Z,65.21
2017-09-24T17:33:17.704Z,65.41
2017-09-24T17:35:45.193Z,65.51
2017-09-24T17:38:12.685Z,65.51
2017-09-24T17:40:40.140Z,65.56
2017-09-24T17:43:07.691Z,65.75
2017-09-24T17:45:35.163Z,66.13
2017-09-24T17:48:05.454Z,66.56
2017-09-24T17:50:32.977Z,66.85
2017-09-24T17:53:00.484Z,66.96
2017-09-24T17:55:27.945Z,67.38
2017-09-24T17:57:55.454Z,67.48
2017-09-24T18:00:22.914Z,67.59
2017-09-24T18:02:50.433Z,67.67
2017-09-24T18:05:17.937Z,67.57
2017-09-24T18:07:45.406Z,67.74
2017-09-24T18:10:12.906Z,67.85
2017-09-24T18:12:40.377Z,68.17
2017-09-24T18:15:07.910Z,68.47
2017-09-24T18:17:35.385Z,69.04
2017-09-24T18:20:02.905Z,69.63
2017-09-24T18:22:30.367Z,70.26
2017-09-24T18:24:57.887Z,70.66
2017-09-24T18:27:25.371Z,70.83
2017-09-24T18:29:52.869Z,71.01
2017-09-24T18:32:20.382Z,71.28
2017-09-24T18:34:48.626Z,71.47
2017-09-24T18:37:16.144Z,71.52
2017-09-24T18:39:44.659Z,71.53
2017-09-24T18:42:12.180Z,71.74
2017-09-24T18:44:39.660Z,72.20
2017-09-24T18:47:07.954Z,72.44
2017-09-24T18:49:35.437Z,72.40
2017-09-24T18:52:02.935Z,72.54
2017-09-24T18:54:30.423Z,72.71
2017-09-24T18:56:57.957Z,72.69
2017-09-24T18:59:25.469Z,72.84
2017-09-24T19:01:53.003Z,72.82
2017-09-24T19:04:20.504Z,72.85
2017-09-24T19:06:48.091Z,73.38
2017-09-24T19:09:15.582Z,73.34
2017-09-24T19:11:43.078Z,73.49
2017-09-24T19:14:10.569Z,73.42
2017-09-24T19:16:38.071Z,73.41
2017-09-24T19:19:05.595Z,74.04
2017-09-24T19:21:33.971Z,74.29
2017-09-24T19:24:01.514Z,74.23
2017-09-24T19:26:29.029Z,74.35
2017-09-24T19:28:56.584Z,74.47
2017-09-24T19:31:24.100Z,74.28
2017-09-24T19:33:51.644Z,74.29
2017-09-24T19:36:19.958Z,74.61
2017-09-24T19:38:47.476Z,74.57
2017-09-24T19:41:14.985Z,74.67
2017-09-24T19:43:42.496Z,74.73
2017-09-24T19:46:10.168Z,74.82
2017-09-24T19:48:37.667Z,74.89
2017-09-24T19:51:05.240Z,74.95
2017-09-24T19:53:32.727Z,75.05
2017-09-24T19:56:00.254Z,74.91
2017-09-24T19:58:27.737Z,75.14
2017-09-24T20:00:55.274Z,75.08
2017-09-24T20:03:22.748Z,75.28
2017-09-24T20:05:50.277Z,75.67
2017-09-24T20:08:17.759Z,75.41
2017-09-24T20:10:45.284Z,75.32
2017-09-24T20:13:12.785Z,75.67
2017-09-24T20:15:40.305Z,75.72
2017-09-24T20:18:07.805Z,75.56
2017-09-24T20:20:35.290Z,75.42
2017-09-24T20:23:02.800Z,75.54
2017-09-24T20:25:30.262Z,76.08
2017-09-24T20:27:57.783Z,75.93
2017-09-24T20:30:25.261Z,75.96
2017-09-24T20:32:53.267Z,75.99
2017-09-24T20:35:20.734Z,75.78
2017-09-24T20:37:48.221Z,75.44
2017-09-24T20:40:15.698Z,75.39
2017-09-24T20:42:43.314Z,75.39
2017-09-24T20:45:10.837Z,75.28
2017-09-24T20:47:38.329Z,75.17
2017-09-24T20:50:05.825Z,75.36
2017-09-24T20:52:33.309Z,75.37
2017-09-24T20:55:00.806Z,75.53
2017-09-24T20:57:28.264Z,75.57
2017-09-24T20:59:55.727Z,75.78
2017-09-24T21:02:23.243Z,75.94
2017-09-24T21:04:50.887Z,75.99
2017-09-24T21:07:18.379Z,76.14
2017-09-24T21:09:45.866Z,75.97
2017-09-24T21:12:13.345Z,75.87
2017-09-24T21:14:40.818Z,76.02
2017-09-24T21:17:08.325Z,76.59
2017-09-24T21:19:35.818Z,77.03
2017-09-24T21:22:03.291Z,76.99
2017-09-24T21:24:30.783Z,76.79
2017-09-24T21:26:58.284Z,76.37
2017-09-24T21:29:25.781Z,76.21
2017-09-24T21:31:53.282Z,76.00
2017-09-24T21:34:20.771Z,75.92
2017-09-24T21:36:48.217Z,75.32
2017-09-24T21:39:15.721Z,74.85
2017-09-24T21:41:43.212Z,75.22
2017-09-24T21:44:10.682Z,75.51
2017-09-24T21:46:38.191Z,75.66
2017-09-24T21:49:05.683Z,75.89
2017-09-24T21:51:33.144Z,75.97
2017-09-24T21:54:00.656Z,76.19
2017-09-24T21:56:28.118Z,76.01
2017-09-24T21:58:55.780Z,75.76
2017-09-24T22:01:23.258Z,75.81
2017-09-24T22:03:50.726Z,75.73
2017-09-24T22:06:18.257Z,76.05
2017-09-24T22:08:45.774Z,76.13
2017-09-24T22:11:13.269Z,76.11
2017-09-24T22:13:40.727Z,75.96
2017-09-24T22:16:08.219Z,75.66
2017-09-24T22:18:35.735Z,76.04
2017-09-24T22:21:03.201Z,76.77
2017-09-24T22:23:30.694Z,77.24
2017-09-24T22:25:58.280Z,77.33
2017-09-24T22:28:25.741Z,77.03
2017-09-24T22:30:53.214Z,76.83
2017-09-24T22:33:20.707Z,77.05
2017-09-24T22:35:48.196Z,77.35
2017-09-24T22:38:15.676Z,77.42
2017-09-24T22:40:43.153Z,77.09
2017-09-24T22:43:10.658Z,76.98
2017-09-24T22:45:38.145Z,76.56
2017-09-24T22:48:05.660Z,76.23
2017-09-24T22:50:33.140Z,75.78
2017-09-24T22:53:00.676Z,75.55
2017-09-24T22:55:28.140Z,75.33
2017-09-24T22:57:55.612Z,75.43
2017-09-24T23:00:23.141Z,75.50
2017-09-24T23:02:50.602Z,75.67
2017-09-24T23:05:18.085Z,75.82
2017-09-24T23:07:45.635Z,75.47
2017-09-24T23:10:13.294Z,75.08
2017-09-24T23:12:40.815Z,75.07
2017-09-24T23:15:08.291Z,75.16
2017-09-24T23:17:35.761Z,75.26
2017-09-24T23:20:03.237Z,75.39
2017-09-24T23:22:30.731Z,75.76
2017-09-24T23:24:58.210Z,76.02
2017-09-24T23:27:25.694Z,75.92
2017-09-24T23:29:53.154Z,75.93
2017-09-24T23:32:20.752Z,75.59
2017-09-24T23:34:48.208Z,75.39
2017-09-24T23:37:15.668Z,75.11
2017-09-24T23:39:43.167Z,75.23
2017-09-24T23:42:10.649Z,75.09
2017-09-24T23:44:38.148Z,75.45
2017-09-24T23:47:05.622Z,75.84
2017-09-24T23:49:33.140Z,75.75
2017-09-24T23:52:00.628Z,76.19
2017-09-24T23:54:28.189Z,77.29
2017-09-24T23:56:55.654Z,77.58
2017-09-24T23:59:23.134Z,77.34
